createdAt,value
2022-10-22T00:01:51.601Z,4.40
2022-10-22T00:04:20.226Z,4.10
2022-10-22T00:06:48.715Z,3.50
2022-10-22T00:09:17.614Z,3.80
2022-10-22T00:11:46.333Z,5.00
2022-10-22T00:14:15.960Z,4.10
2022-10-22T00:16:44.562Z,4.00
2022-10-22T00:19:13.616Z,3.80
2022-10-22T00:21:42.137Z,3.60
2022-10-22T00:24:10.690Z,3.30
2022-10-22T00:26:40.649Z,3.70
2022-10-22T00:29:09.200Z,3.50
2022-10-22T00:31:37.821Z,2.70
2022-10-22T00:34:06.430Z,3.50
2022-10-22T00:36:34.823Z,3.30
2022-10-22T00:39:03.428Z,3.40
2022-10-22T00:41:32.018Z,3.30
2022-10-22T00:44:05.192Z,3.80
2022-10-22T00:46:33.704Z,3.60
2022-10-22T00:49:04.316Z,3.60
2022-10-22T00:51:35.532Z,3.30
2022-10-22T00:54:08.863Z,4.00
2022-10-22T00:56:38.538Z,3.60
2022-10-22T01:01:37.307Z,3.00
2022-10-22T01:04:06.073Z,4.10
2022-10-22T18:28:09.295Z,21.20
2022-10-22T18:30:41.155Z,18.60
2022-10-22T18:33:14.768Z,15.40
2022-10-22T18:35:46.611Z,14.60
2022-10-22T18:38:15.550Z,14.20
2022-10-22T18:40:46.847Z,14.40
2022-10-22T18:43:17.344Z,13.40
2022-10-22T18:45:50.519Z,15.00
2022-10-22T18:48:23.197Z,15.90
2022-10-22T19:04:33.403Z,14.70
2022-10-22T19:07:06.121Z,14.70
2022-10-22T19:12:03.805Z,14.00
2022-10-22T19:14:33.235Z,14.00
2022-10-22T19:17:02.195Z,15.00
2022-10-22T19:19:31.167Z,12.90
2022-10-22T19:22:00.026Z,14.10
2022-10-22T19:24:29.524Z,15.70
2022-10-22T19:26:58.503Z,13.40
2022-10-22T19:29:27.252Z,13.70
2022-10-22T19:31:56.025Z,16.60
2022-10-22T19:34:24.673Z,16.90
2022-10-22T19:36:53.579Z,14.60
2022-10-22T19:39:22.498Z,14.70
2022-10-22T19:41:51.311Z,13.60
2022-10-22T19:44:20.080Z,14.60
2022-10-22T19:46:49.282Z,12.80
2022-10-22T19:49:22.027Z,13.30
2022-10-22T19:51:51.940Z,13.70
2022-10-22T19:54:20.862Z,14.00
2022-10-22T19:56:50.264Z,13.60
2022-10-22T19:59:22.749Z,13.60
2022-10-22T20:01:51.690Z,12.90
2022-10-22T20:04:20.800Z,13.30
2022-10-22T20:06:52.337Z,13.80
2022-10-22T20:09:21.165Z,14.10
2022-10-22T20:11:49.918Z,14.30
2022-10-22T20:14:19.172Z,14.60
2022-10-22T20:16:48.010Z,17.00
2022-10-22T20:19:26.230Z,20.20
2022-10-22T20:21:55.317Z,20.00
2022-10-22T20:24:24.286Z,19.70
2022-10-22T20:26:56.226Z,18.30
2022-10-22T20:29:26.961Z,17.20
2022-10-22T20:31:55.678Z,17.60
2022-10-22T20:34:24.466Z,16.90
2022-10-22T20:36:53.250Z,15.70
2022-10-22T20:39:22.032Z,16.20
2022-10-22T20:41:53.068Z,15.80
2022-10-22T20:44:21.772Z,15.10
2022-10-22T20:46:52.108Z,16.60
2022-10-22T20:49:21.049Z,15.50
2022-10-22T20:51:50.033Z,16.30
2022-10-22T20:54:20.352Z,15.70
2022-10-22T20:56:49.080Z,16.90
2022-10-22T20:59:17.834Z,17.40
2022-10-22T21:01:54.413Z,15.10
2022-10-22T21:04:23.280Z,15.90
2022-10-22T21:06:52.651Z,16.60
2022-10-22T21:09:21.765Z,15.90
2022-10-22T21:11:51.664Z,16.80
2022-10-22T21:14:23.482Z,17.60
2022-10-22T21:16:53.310Z,19.10
2022-10-22T21:19:23.268Z,13.80
2022-10-22T21:21:52.078Z,17.80
2022-10-22T21:24:24.986Z,18.90
2022-10-22T21:26:54.361Z,17.80
2022-10-22T21:29:23.278Z,16.90
2022-10-22T21:31:53.238Z,16.10
2022-10-22T21:34:22.007Z,15.50
2022-10-22T21:36:50.698Z,14.90
2022-10-22T21:39:19.500Z,14.60
2022-10-22T21:41:48.251Z,15.80
2022-10-22T21:44:16.905Z,15.20
2022-10-22T21:46:45.658Z,14.60
2022-10-22T21:49:14.612Z,13.30
2022-10-22T21:51:44.327Z,13.40
